Time;durP1;ratioP1;P1;durP2;ratioP2;P2;SDS_P1;SDS_P2;PMS_P1;PMS_P2;Temp;Humidity;BMP_temperature;BMP_pressure;BME280_temperature;BME280_humidity;BME280_pressure;Samples;Min_cycle;Max_cycle;Signal;HPM_P1;HPM_P2
2022/04/18 00:00:06;;;;;;;11.13;9.52;;;;;;;;;;5060820;28;20229;-18
2022/04/18 00:02:34;;;;;;;17.35;9.77;;;;;;;;;;5060437;28;20236;-17
2022/04/18 00:05:01;;;;;;;12.63;9.18;;;;;;;;;;5060447;28;20230;-17
2022/04/18 00:07:28;;;;;;;11.82;9.32;;;;;;;;;;5063393;28;20226;-18
2022/04/18 00:09:56;;;;;;;13.77;9.93;;;;;;;;;;5061994;28;20238;-18
2022/04/18 00:12:23;;;;;;;10.35;8.95;;;;;;;;;;5064923;28;20234;-17
2022/04/18 00:14:50;;;;;;;15.52;9.52;;;;;;;;;;5062349;28;20213;-17
2022/04/18 00:17:19;;;;;;;12.98;9.57;;;;;;;;;;5064718;28;20233;-18
2022/04/18 00:19:46;;;;;;;13.30;9.60;;;;;;;;;;5064439;28;20238;-17
2022/04/18 00:22:14;;;;;;;11.52;9.85;;;;;;;;;;5063310;28;20234;-17
2022/04/18 00:24:41;;;;;;;13.60;9.55;;;;;;;;;;5063097;28;20993;-17
2022/04/18 00:27:08;;;;;;;12.02;9.80;;;;;;;;;;5059650;28;20245;-18
2022/04/18 00:29:36;;;;;;;11.30;9.23;;;;;;;;;;5063796;28;20233;-18
2022/04/18 00:32:03;;;;;;;10.82;8.57;;;;;;;;;;5063415;28;20225;-18
2022/04/18 00:34:32;;;;;;;12.73;9.35;;;;;;;;;;5059322;28;20310;-18
2022/04/18 00:37:00;;;;;;;14.80;10.00;;;;;;;;;;5064682;28;20230;-18
2022/04/18 00:39:27;;;;;;;11.18;9.15;;;;;;;;;;5063015;28;20727;-17
2022/04/18 00:41:54;;;;;;;10.73;9.10;;;;;;;;;;5062435;28;20234;-17
2022/04/18 00:44:22;;;;;;;10.75;9.05;;;;;;;;;;5060471;28;20700;-18
2022/04/18 00:46:49;;;;;;;14.98;9.73;;;;;;;;;;5064074;28;20233;-17
2022/04/18 00:49:16;;;;;;;10.18;8.98;;;;;;;;;;5061630;28;20241;-18
2022/04/18 00:51:45;;;;;;;11.95;9.45;;;;;;;;;;5063081;28;20229;-18
2022/04/18 00:54:12;;;;;;;10.68;8.63;;;;;;;;;;5062343;28;20701;-17
2022/04/18 00:56:40;;;;;;;13.82;9.32;;;;;;;;;;5060161;28;20237;-17
2022/04/18 00:59:08;;;;;;;10.55;8.55;;;;;;;;;;5062906;28;20340;-18
2022/04/18 01:01:37;;;;;;;10.00;8.77;;;;;;;;;;5063863;28;20233;-18
2022/04/18 01:04:04;;;;;;;13.35;9.95;;;;;;;;;;5066840;28;20288;-17
2022/04/18 01:06:32;;;;;;;11.27;9.32;;;;;;;;;;5059653;28;20705;-18
2022/04/18 01:09:01;;;;;;;11.75;9.52;;;;;;;;;;5062347;28;20240;-18
2022/04/18 01:11:28;;;;;;;11.35;8.88;;;;;;;;;;5060066;28;20236;-18
2022/04/18 01:13:55;;;;;;;11.70;9.30;;;;;;;;;;5063362;28;20236;-17
2022/04/18 01:16:23;;;;;;;12.40;9.57;;;;;;;;;;5061950;28;20242;-17
2022/04/18 01:18:51;;;;;;;13.18;9.40;;;;;;;;;;5061104;28;20240;-17
2022/04/18 01:21:20;;;;;;;11.73;8.85;;;;;;;;;;5061255;28;21301;-17
2022/04/18 01:23:47;;;;;;;11.70;9.52;;;;;;;;;;5060554;28;20241;-17
2022/04/18 01:29:00;;;;;;;12.10;9.50;;;;;;;;;;5069960;28;20236;-18
2022/04/18 01:31:28;;;;;;;12.30;8.90;;;;;;;;;;5069276;28;20233;-18
2022/04/18 01:33:55;;;;;;;12.02;9.50;;;;;;;;;;5064857;28;20256;-15
2022/04/18 01:36:24;;;;;;;11.25;9.60;;;;;;;;;;5060932;28;20738;-18
2022/04/18 01:38:51;;;;;;;12.90;9.18;;;;;;;;;;5062552;28;20234;-17
2022/04/18 01:41:19;;;;;;;11.13;9.25;;;;;;;;;;5061142;28;20801;-17
2022/04/18 01:43:46;;;;;;;12.13;9.15;;;;;;;;;;5061812;28;20234;-17
2022/04/18 01:46:14;;;;;;;15.63;9.85;;;;;;;;;;5066182;28;20234;-17
2022/04/18 01:48:41;;;;;;;12.57;10.05;;;;;;;;;;5064170;28;20312;-17
2022/04/18 01:51:09;;;;;;;12.15;9.20;;;;;;;;;;5063103;28;20241;-17
2022/04/18 01:53:37;;;;;;;11.88;9.30;;;;;;;;;;5066296;28;20225;-17
2022/04/18 01:56:05;;;;;;;12.20;9.73;;;;;;;;;;5062612;28;20240;-18
2022/04/18 01:58:32;;;;;;;12.80;9.77;;;;;;;;;;5065463;28;20232;-18
2022/04/18 02:01:00;;;;;;;12.13;9.23;;;;;;;;;;5067722;28;20232;-18
2022/04/18 02:03:27;;;;;;;14.77;9.82;;;;;;;;;;5065940;28;20770;-17
2022/04/18 02:05:55;;;;;;;12.98;9.70;;;;;;;;;;5063419;28;20234;-18
2022/04/18 02:08:23;;;;;;;12.48;10.20;;;;;;;;;;5064744;28;20856;-18
2022/04/18 02:10:52;;;;;;;13.70;9.93;;;;;;;;;;5063506;28;20229;-17
2022/04/18 02:13:19;;;;;;;14.35;9.90;;;;;;;;;;5064715;28;20222;-18
2022/04/18 02:15:47;;;;;;;12.93;10.35;;;;;;;;;;5060233;28;21154;-18
2022/04/18 02:18:15;;;;;;;14.23;10.32;;;;;;;;;;5063647;28;20724;-17
2022/04/18 02:20:42;;;;;;;13.68;10.32;;;;;;;;;;5080075;22;20237;-18
2022/04/18 02:23:10;;;;;;;12.57;10.07;;;;;;;;;;5067544;28;21068;-18
2022/04/18 02:25:37;;;;;;;12.65;10.52;;;;;;;;;;5066843;28;20233;-18
2022/04/18 02:28:06;;;;;;;12.60;10.27;;;;;;;;;;5065054;28;20264;-19
2022/04/18 02:30:33;;;;;;;12.77;10.30;;;;;;;;;;5067649;28;20689;-18
2022/04/18 02:33:01;;;;;;;13.45;10.30;;;;;;;;;;5065129;28;20221;-18
2022/04/18 02:35:28;;;;;;;12.75;10.38;;;;;;;;;;5063658;28;20242;-16
2022/04/18 02:37:56;;;;;;;14.80;10.88;;;;;;;;;;5061273;28;20677;-18
2022/04/18 02:40:23;;;;;;;13.82;10.90;;;;;;;;;;5063142;28;20218;-18
2022/04/18 02:42:50;;;;;;;14.00;10.73;;;;;;;;;;5066270;28;20237;-18
2022/04/18 02:45:19;;;;;;;12.95;10.70;;;;;;;;;;5064421;28;20233;-17
2022/04/18 02:47:47;;;;;;;12.57;10.50;;;;;;;;;;5063770;28;20328;-17
2022/04/18 02:50:15;;;;;;;13.88;10.38;;;;;;;;;;5060552;28;20237;-18
2022/04/18 02:52:42;;;;;;;12.10;10.52;;;;;;;;;;5064118;28;20229;-19
2022/04/18 02:55:11;;;;;;;16.27;10.85;;;;;;;;;;5062484;28;20234;-19
2022/04/18 02:57:40;;;;;;;14.07;11.13;;;;;;;;;;5065206;28;20218;-18
2022/04/18 03:00:08;;;;;;;12.15;10.85;;;;;;;;;;5064738;28;20778;-18
2022/04/18 03:02:37;;;;;;;13.75;10.82;;;;;;;;;;5061744;28;20270;-18
2022/04/18 03:05:05;;;;;;;13.63;10.57;;;;;;;;;;5064959;28;20240;-18
2022/04/18 03:07:32;;;;;;;12.85;10.63;;;;;;;;;;5061544;28;20234;-18
2022/04/18 03:09:59;;;;;;;12.35;10.27;;;;;;;;;;5065073;28;20809;-18
2022/04/18 03:12:27;;;;;;;15.35;11.38;;;;;;;;;;5060089;28;20226;-18
2022/04/18 03:14:54;;;;;;;12.60;10.85;;;;;;;;;;5062001;28;20240;-18
2022/04/18 03:17:21;;;;;;;14.35;11.45;;;;;;;;;;5065071;28;20737;-18
2022/04/18 03:19:51;;;;;;;14.20;11.13;;;;;;;;;;5063330;28;20218;-18
2022/04/18 03:22:19;;;;;;;12.98;10.70;;;;;;;;;;5062519;28;20252;-18
2022/04/18 03:24:51;;;;;;;13.40;10.68;;;;;;;;;;5063436;28;20230;-18
2022/04/18 03:27:20;;;;;;;15.45;11.35;;;;;;;;;;5065915;28;20234;-18
2022/04/18 03:29:48;;;;;;;13.95;11.23;;;;;;;;;;5066826;28;20237;-18
2022/04/18 03:32:15;;;;;;;13.45;10.85;;;;;;;;;;5067644;28;20233;-18
2022/04/18 03:34:43;;;;;;;12.88;11.10;;;;;;;;;;5062121;28;20234;-18
2022/04/18 03:39:56;;;;;;;13.32;11.13;;;;;;;;;;5061677;28;20233;-18
2022/04/18 03:42:29;;;;;;;15.27;11.52;;;;;;;;;;5064989;28;20731;-18
2022/04/18 03:44:59;;;;;;;13.43;11.40;;;;;;;;;;5064073;28;20221;-18
2022/04/18 03:47:26;;;;;;;14.45;11.25;;;;;;;;;;5065521;28;20282;-18
2022/04/18 03:49:54;;;;;;;14.15;11.38;;;;;;;;;;5062924;28;20345;-18
2022/04/18 03:52:23;;;;;;;15.05;11.98;;;;;;;;;;5064209;28;20222;-18
2022/04/18 03:54:50;;;;;;;13.93;10.85;;;;;;;;;;5062268;28;20229;-18
2022/04/18 03:57:17;;;;;;;14.27;11.07;;;;;;;;;;5062386;28;20234;-18
2022/04/18 03:59:45;;;;;;;16.00;11.98;;;;;;;;;;5063358;28;20228;-18
2022/04/18 04:02:13;;;;;;;15.20;12.18;;;;;;;;;;5066273;28;20233;-18
2022/04/18 04:04:42;;;;;;;13.15;11.13;;;;;;;;;;5060814;28;20241;-18
2022/04/18 04:07:09;;;;;;;13.48;11.25;;;;;;;;;;5060054;28;20217;-18
2022/04/18 04:09:38;;;;;;;14.05;11.32;;;;;;;;;;5060879;28;21032;-18
2022/04/18 04:12:06;;;;;;;14.52;11.15;;;;;;;;;;5071408;28;20229;-18
2022/04/18 04:14:33;;;;;;;14.73;11.25;;;;;;;;;;5060885;28;20226;-18
2022/04/18 04:17:00;;;;;;;13.43;11.70;;;;;;;;;;5064327;28;20234;-19
2022/04/18 04:19:28;;;;;;;14.18;11.32;;;;;;;;;;5063313;28;20986;-18
2022/04/18 04:21:55;;;;;;;15.77;11.68;;;;;;;;;;5062365;28;20248;-18
2022/04/18 04:24:22;;;;;;;16.05;11.85;;;;;;;;;;5061408;28;20236;-18
2022/04/18 04:26:51;;;;;;;13.40;11.40;;;;;;;;;;5063344;28;20399;-18
2022/04/18 04:29:18;;;;;;;14.23;11.35;;;;;;;;;;5061970;28;20238;-18
2022/04/18 04:31:46;;;;;;;14.02;11.45;;;;;;;;;;5062288;28;20231;-18
2022/04/18 04:34:13;;;;;;;15.15;11.52;;;;;;;;;;5060539;28;20226;-18
2022/04/18 04:36:41;;;;;;;15.77;11.30;;;;;;;;;;5063205;28;20229;-18
2022/04/18 04:39:08;;;;;;;13.32;11.32;;;;;;;;;;5060353;28;20230;-18
2022/04/18 04:41:36;;;;;;;12.80;11.50;;;;;;;;;;5063399;28;20236;-18
2022/04/18 04:44:05;;;;;;;12.88;11.30;;;;;;;;;;5063492;28;20240;-18
2022/04/18 04:46:32;;;;;;;14.18;11.93;;;;;;;;;;5063307;28;20222;-18
2022/04/18 04:49:00;;;;;;;14.07;11.32;;;;;;;;;;5059114;28;20225;-18
2022/04/18 04:51:27;;;;;;;15.40;11.70;;;;;;;;;;5059253;28;20701;-18
2022/04/18 04:53:54;;;;;;;12.82;11.40;;;;;;;;;;5062375;28;20222;-18
2022/04/18 04:56:24;;;;;;;13.20;11.48;;;;;;;;;;5064356;28;20237;-18
2022/04/18 04:58:53;;;;;;;15.70;12.18;;;;;;;;;;5062529;28;20708;-18
2022/04/18 05:01:21;;;;;;;14.75;12.48;;;;;;;;;;5065964;28;20242;-18
2022/04/18 05:03:49;;;;;;;14.93;11.80;;;;;;;;;;5061728;28;21045;-18
2022/04/18 05:06:16;;;;;;;16.67;11.82;;;;;;;;;;5065261;28;20225;-18
2022/04/18 05:08:43;;;;;;;15.50;11.25;;;;;;;;;;5060612;28;20705;-18
2022/04/18 05:11:11;;;;;;;16.30;11.80;;;;;;;;;;5062601;28;20798;-18
2022/04/18 05:13:38;;;;;;;15.50;12.45;;;;;;;;;;5059907;28;20230;-18
2022/04/18 05:16:05;;;;;;;14.70;11.63;;;;;;;;;;5059060;28;20214;-18
2022/04/18 05:18:39;;;;;;;14.40;12.10;;;;;;;;;;5058917;28;20280;-17
2022/04/18 05:21:07;;;;;;;14.50;11.13;;;;;;;;;;5058459;28;20242;-18
2022/04/18 05:23:34;;;;;;;14.13;11.77;;;;;;;;;;5063021;28;20989;-18
2022/04/18 05:26:01;;;;;;;13.45;11.43;;;;;;;;;;5059679;28;20838;-18
2022/04/18 05:28:29;;;;;;;14.30;12.20;;;;;;;;;;5062056;28;20237;-18
2022/04/18 05:31:00;;;;;;;14.20;12.13;;;;;;;;;;5059328;28;20230;-18
2022/04/18 05:33:28;;;;;;;14.77;11.75;;;;;;;;;;5062395;28;20233;-18
2022/04/18 05:35:56;;;;;;;14.93;11.50;;;;;;;;;;5060297;28;20234;-18
2022/04/18 05:38:24;;;;;;;13.85;11.70;;;;;;;;;;5065277;28;20217;-18
2022/04/18 05:40:51;;;;;;;14.85;11.23;;;;;;;;;;5060237;28;20214;-18
2022/04/18 05:43:18;;;;;;;17.15;12.30;;;;;;;;;;5063018;28;20240;-18
2022/04/18 05:45:48;;;;;;;14.30;11.90;;;;;;;;;;5061396;28;20233;-18
2022/04/18 05:48:15;;;;;;;14.95;11.90;;;;;;;;;;5060632;28;20226;-18
2022/04/18 05:50:45;;;;;;;15.82;11.75;;;;;;;;;;5061899;28;20241;-18
2022/04/18 05:53:14;;;;;;;16.45;12.15;;;;;;;;;;5061658;28;20221;-18
2022/04/18 05:55:41;;;;;;;13.95;11.52;;;;;;;;;;5063702;28;20707;-18
2022/04/18 05:58:08;;;;;;;15.05;12.20;;;;;;;;;;5059667;28;20218;-18
2022/04/18 06:00:36;;;;;;;14.13;11.82;;;;;;;;;;5061554;28;20681;-18
2022/04/18 06:03:03;;;;;;;14.13;11.93;;;;;;;;;;5059585;28;20305;-18
2022/04/18 06:05:30;;;;;;;16.08;11.90;;;;;;;;;;5060757;28;21013;-18
2022/04/18 06:07:58;;;;;;;16.52;12.85;;;;;;;;;;5063145;28;20260;-18
2022/04/18 06:10:26;;;;;;;13.27;11.85;;;;;;;;;;5067044;28;20237;-18
2022/04/18 06:12:54;;;;;;;15.43;12.20;;;;;;;;;;5067170;28;20693;-18
2022/04/18 06:15:22;;;;;;;15.85;12.05;;;;;;;;;;5068253;28;20359;-18
2022/04/18 06:17:49;;;;;;;14.98;11.55;;;;;;;;;;5060646;28;20310;-18
2022/04/18 06:20:16;;;;;;;16.58;12.07;;;;;;;;;;5057964;28;20237;-18
2022/04/18 06:22:44;;;;;;;15.48;11.48;;;;;;;;;;5068560;28;20257;-18
2022/04/18 06:25:11;;;;;;;14.50;12.07;;;;;;;;;;5065544;28;20237;-19
2022/04/18 06:27:40;;;;;;;14.18;11.73;;;;;;;;;;5064905;28;20288;-18
2022/04/18 06:30:08;;;;;;;14.88;11.75;;;;;;;;;;5068156;28;20248;-18
2022/04/18 06:32:36;;;;;;;14.18;11.18;;;;;;;;;;5069620;28;20221;-18
2022/04/18 06:35:03;;;;;;;14.60;12.20;;;;;;;;;;5066789;28;20552;-18
2022/04/18 06:37:31;;;;;;;14.82;11.55;;;;;;;;;;5067121;28;20244;-18
2022/04/18 06:39:59;;;;;;;15.70;11.27;;;;;;;;;;5064287;28;20252;-18
2022/04/18 06:42:26;;;;;;;14.30;11.68;;;;;;;;;;5061777;28;20237;-18
2022/04/18 06:44:55;;;;;;;14.60;10.75;;;;;;;;;;5067289;28;20238;-18
2022/04/18 06:47:22;;;;;;;18.92;11.52;;;;;;;;;;5065763;28;20230;-18
2022/04/18 06:49:49;;;;;;;18.30;12.38;;;;;;;;;;5068186;28;21035;-18
2022/04/18 06:52:22;;;;;;;19.65;12.55;;;;;;;;;;5059033;28;20253;-16
2022/04/18 06:54:49;;;;;;;19.88;12.38;;;;;;;;;;5065709;28;20321;-19
2022/04/18 06:57:16;;;;;;;18.75;11.85;;;;;;;;;;5071726;28;20685;-17
2022/04/18 06:59:45;;;;;;;16.13;12.18;;;;;;;;;;5069208;28;21042;-17
2022/04/18 07:02:14;;;;;;;18.50;11.55;;;;;;;;;;5064932;28;20240;-17
2022/04/18 07:04:41;;;;;;;16.45;12.05;;;;;;;;;;5062575;28;20234;-17
2022/04/18 07:07:09;;;;;;;15.40;11.23;;;;;;;;;;5067883;28;20226;-18
2022/04/18 07:09:36;;;;;;;16.13;11.65;;;;;;;;;;5070431;28;20240;-18
2022/04/18 07:12:04;;;;;;;17.10;11.68;;;;;;;;;;5071685;28;20226;-18
2022/04/18 07:14:31;;;;;;;15.20;11.23;;;;;;;;;;5067047;28;20233;-18
2022/04/18 07:16:59;;;;;;;15.20;10.88;;;;;;;;;;5062959;28;20234;-18
2022/04/18 07:19:28;;;;;;;15.60;11.77;;;;;;;;;;5067670;28;20226;-19
2022/04/18 07:21:56;;;;;;;13.13;10.07;;;;;;;;;;5070453;28;21135;-18
2022/04/18 07:24:23;;;;;;;15.25;10.85;;;;;;;;;;5070718;28;20758;-16
2022/04/18 07:26:51;;;;;;;15.82;11.43;;;;;;;;;;5072859;28;20344;-17
2022/04/18 07:29:18;;;;;;;14.10;10.70;;;;;;;;;;5069880;28;20230;-19
2022/04/18 07:31:45;;;;;;;18.45;10.95;;;;;;;;;;5072236;28;20237;-16
2022/04/18 07:34:13;;;;;;;27.27;10.43;;;;;;;;;;5070078;28;20328;-19
2022/04/18 07:36:41;;;;;;;24.73;10.57;;;;;;;;;;5072487;28;20230;-19
2022/04/18 07:39:09;;;;;;;19.00;9.80;;;;;;;;;;5071616;28;20225;-18
2022/04/18 07:41:36;;;;;;;19.40;10.50;;;;;;;;;;5065789;28;20240;-18
2022/04/18 07:44:04;;;;;;;18.23;9.98;;;;;;;;;;5066895;28;20239;-19
2022/04/18 07:46:32;;;;;;;21.50;9.60;;;;;;;;;;5067660;28;20225;-19
2022/04/18 07:49:00;;;;;;;14.50;9.20;;;;;;;;;;5065564;28;20240;-17
2022/04/18 07:51:34;;;;;;;20.95;9.15;;;;;;;;;;5068307;28;20233;-18
2022/04/18 07:54:04;;;;;;;17.88;9.18;;;;;;;;;;5071470;28;20225;-18
2022/04/18 07:56:32;;;;;;;17.08;9.73;;;;;;;;;;5065570;28;20234;-19
2022/04/18 07:58:59;;;;;;;13.38;9.05;;;;;;;;;;5066855;28;20331;-18
2022/04/18 08:01:29;;;;;;;18.08;9.20;;;;;;;;;;5070763;28;20241;-18
2022/04/18 08:03:59;;;;;;;15.18;8.35;;;;;;;;;;5071851;28;20983;-18
2022/04/18 08:06:26;;;;;;;17.92;8.75;;;;;;;;;;5067231;28;20230;-18
2022/04/18 08:08:54;;;;;;;15.75;8.20;;;;;;;;;;5070924;28;20237;-18
2022/04/18 08:11:22;;;;;;;15.52;7.88;;;;;;;;;;5071032;28;20242;-18
2022/04/18 08:13:50;;;;;;;13.93;8.82;;;;;;;;;;5059942;28;20244;-18
2022/04/18 08:16:17;;;;;;;13.63;8.52;;;;;;;;;;5066884;28;20233;-18
2022/04/18 08:18:45;;;;;;;11.40;8.38;;;;;;;;;;5066155;28;20239;-18
2022/04/18 08:21:12;;;;;;;11.65;7.78;;;;;;;;;;5064272;28;20264;-18
2022/04/18 08:23:40;;;;;;;14.70;8.27;;;;;;;;;;5065890;28;20292;-18
2022/04/18 08:26:07;;;;;;;11.90;8.30;;;;;;;;;;5066758;28;20697;-18
2022/04/18 08:28:36;;;;;;;10.40;8.25;;;;;;;;;;5064794;28;20241;-18
2022/04/18 08:31:03;;;;;;;17.02;8.82;;;;;;;;;;5066741;28;20427;-18
2022/04/18 08:33:31;;;;;;;18.95;7.68;;;;;;;;;;5068093;28;20661;-18
2022/04/18 08:35:58;;;;;;;15.13;8.20;;;;;;;;;;5070588;28;20708;-18
2022/04/18 08:38:25;;;;;;;20.08;8.25;;;;;;;;;;5068129;28;20237;-18
2022/04/18 08:40:55;;;;;;;13.93;7.80;;;;;;;;;;5069405;28;20424;-18
2022/04/18 08:43:27;;;;;;;17.23;7.82;;;;;;;;;;5059789;28;20236;-18
2022/04/18 08:45:55;;;;;;;15.60;7.78;;;;;;;;;;5070046;28;20267;-18
2022/04/18 08:53:53;;;;;;;14.10;7.50;;;;;;;;;;5059824;28;20734;-18
2022/04/18 08:56:20;;;;;;;27.02;7.90;;;;;;;;;;5063366;28;20574;-18
2022/04/18 08:58:47;;;;;;;12.27;7.25;;;;;;;;;;5060416;28;20337;-18
2022/04/18 09:01:16;;;;;;;14.57;6.80;;;;;;;;;;5063617;28;20624;-18
2022/04/18 09:03:43;;;;;;;15.15;6.50;;;;;;;;;;5064706;28;20230;-18
2022/04/18 09:06:11;;;;;;;15.88;6.88;;;;;;;;;;5063388;28;20410;-18
2022/04/18 09:08:46;;;;;;;19.50;7.43;;;;;;;;;;5063866;28;20276;-18
2022/04/18 09:11:25;;;;;;;12.32;7.05;;;;;;;;;;5060987;28;21033;-19
2022/04/18 09:13:57;;;;;;;14.77;6.53;;;;;;;;;;5059411;28;20723;-18
2022/04/18 09:16:30;;;;;;;12.38;6.68;;;;;;;;;;5064142;28;20238;-18
2022/04/18 09:19:05;;;;;;;15.15;6.97;;;;;;;;;;5065126;28;20324;-18
2022/04/18 09:21:32;;;;;;;13.63;6.43;;;;;;;;;;5060257;28;20247;-18
2022/04/18 09:23:59;;;;;;;12.38;6.45;;;;;;;;;;5061129;28;20440;-18
2022/04/18 09:26:27;;;;;;;11.15;6.53;;;;;;;;;;5066107;28;20905;-18
2022/04/18 09:28:55;;;;;;;9.98;6.03;;;;;;;;;;5056797;28;20421;-18
2022/04/18 09:31:24;;;;;;;13.48;6.15;;;;;;;;;;5062493;28;20249;-18
2022/04/18 09:33:55;;;;;;;10.25;6.65;;;;;;;;;;5056220;28;20366;-19
2022/04/18 09:36:23;;;;;;;13.15;5.93;;;;;;;;;;5061305;28;20225;-18
2022/04/18 09:38:51;;;;;;;9.75;5.45;;;;;;;;;;5061143;28;21062;-18
2022/04/18 09:41:21;;;;;;;8.65;5.70;;;;;;;;;;5064461;28;20794;-18
2022/04/18 09:43:49;;;;;;;14.18;5.80;;;;;;;;;;5060933;28;20320;-18
2022/04/18 09:46:16;;;;;;;11.38;6.18;;;;;;;;;;5065092;28;20753;-18
2022/04/18 09:48:44;;;;;;;10.77;6.25;;;;;;;;;;5060965;28;20330;-18
2022/04/18 09:51:13;;;;;;;10.20;5.95;;;;;;;;;;5063933;28;20237;-18
2022/04/18 09:53:41;;;;;;;6.22;5.50;;;;;;;;;;5062292;28;20238;-18
2022/04/18 09:56:08;;;;;;;7.72;5.05;;;;;;;;;;5056707;28;20803;-18
2022/04/18 09:58:36;;;;;;;8.30;6.03;;;;;;;;;;5063892;28;20701;-18
2022/04/18 10:01:23;;;;;;;7.78;5.40;;;;;;;;;;5057882;28;20226;-18
2022/04/18 10:03:52;;;;;;;10.68;5.70;;;;;;;;;;5063967;28;20421;-18
2022/04/18 10:06:21;;;;;;;7.07;5.25;;;;;;;;;;5059988;28;20381;-18
2022/04/18 10:08:48;;;;;;;8.43;6.18;;;;;;;;;;5065111;28;21126;-18
2022/04/18 10:11:16;;;;;;;8.82;5.65;;;;;;;;;;5065081;28;20264;-19
2022/04/18 10:13:43;;;;;;;6.75;5.10;;;;;;;;;;5063992;28;20429;-18
2022/04/18 10:16:10;;;;;;;10.63;5.30;;;;;;;;;;5065858;28;20244;-18
2022/04/18 10:18:40;;;;;;;7.40;5.53;;;;;;;;;;5062527;28;20220;-18
2022/04/18 10:21:18;;;;;;;7.20;5.40;;;;;;;;;;5058219;28;20227;-18
2022/04/18 10:24:03;;;;;;;6.88;5.00;;;;;;;;;;5065216;28;20268;-19
2022/04/18 10:27:07;;;;;;;9.38;4.82;;;;;;;;;;5064052;28;20332;-19
2022/04/18 10:29:39;;;;;;;10.90;4.97;;;;;;;;;;5028095;28;20230;-19
2022/04/18 10:32:07;;;;;;;7.88;4.55;;;;;;;;;;5025815;28;20273;-19
2022/04/18 10:34:35;;;;;;;6.22;4.60;;;;;;;;;;5049734;28;20683;-18
2022/04/18 10:37:08;;;;;;;8.13;4.30;;;;;;;;;;5069893;28;20272;-18
2022/04/18 10:39:36;;;;;;;6.50;4.43;;;;;;;;;;5065119;28;20226;-18
2022/04/18 10:42:19;;;;;;;7.75;4.57;;;;;;;;;;5062691;28;20248;-18
2022/04/18 10:44:58;;;;;;;8.85;4.53;;;;;;;;;;5062279;28;20601;-19
2022/04/18 10:47:26;;;;;;;6.55;4.38;;;;;;;;;;5064106;28;20232;-18
2022/04/18 10:50:12;;;;;;;8.20;4.30;;;;;;;;;;5062914;28;20228;-18
2022/04/18 10:52:39;;;;;;;9.27;4.53;;;;;;;;;;5062087;28;20954;-19
2022/04/18 10:55:06;;;;;;;6.80;4.10;;;;;;;;;;5066043;28;20218;-19
2022/04/18 10:57:34;;;;;;;6.60;4.25;;;;;;;;;;5064844;28;20238;-19
2022/04/18 11:00:03;;;;;;;7.18;4.32;;;;;;;;;;5060139;28;20225;-17
2022/04/18 11:02:37;;;;;;;21.40;5.07;;;;;;;;;;5065223;28;20341;-19
2022/04/18 11:05:05;;;;;;;11.02;4.35;;;;;;;;;;5063243;28;20707;-18
2022/04/18 11:07:37;;;;;;;9.63;3.97;;;;;;;;;;5063029;28;20233;-19
2022/04/18 11:10:08;;;;;;;11.80;3.97;;;;;;;;;;5064281;28;20229;-18
2022/04/18 11:12:36;;;;;;;7.15;4.10;;;;;;;;;;5067825;28;20241;-18
2022/04/18 11:15:05;;;;;;;8.68;4.15;;;;;;;;;;5065266;28;20226;-18
2022/04/18 11:17:33;;;;;;;15.77;4.25;;;;;;;;;;5063249;28;20237;-19
2022/04/18 11:20:19;;;;;;;7.32;3.30;;;;;;;;;;5068515;28;20234;-19
2022/04/18 11:23:01;;;;;;;8.13;3.05;;;;;;;;;;5068400;28;20255;-18
2022/04/18 11:25:29;;;;;;;6.00;3.17;;;;;;;;;;5063407;28;20472;-18
2022/04/18 11:27:56;;;;;;;17.35;3.75;;;;;;;;;;5061053;28;20673;-18
2022/04/18 11:30:25;;;;;;;6.00;2.97;;;;;;;;;;5071179;28;20226;-18
2022/04/18 11:32:53;;;;;;;7.10;3.05;;;;;;;;;;5064101;28;20246;-18
2022/04/18 11:35:20;;;;;;;12.10;2.92;;;;;;;;;;5064011;28;20724;-19
2022/04/18 11:37:48;;;;;;;7.85;3.00;;;;;;;;;;5062883;28;20229;-19
2022/04/18 11:40:16;;;;;;;5.10;2.88;;;;;;;;;;5063104;28;20431;-19
2022/04/18 11:42:44;;;;;;;8.77;2.93;;;;;;;;;;5066778;28;20426;-17
2022/04/18 11:45:21;;;;;;;4.75;2.33;;;;;;;;;;5065786;28;20962;-19
2022/04/18 11:47:50;;;;;;;9.45;2.80;;;;;;;;;;5064698;28;20296;-19
2022/04/18 11:50:21;;;;;;;7.70;3.00;;;;;;;;;;5060853;28;20796;-19
2022/04/18 11:52:49;;;;;;;8.07;3.20;;;;;;;;;;5065232;28;21052;-19
2022/04/18 11:55:17;;;;;;;9.65;3.03;;;;;;;;;;5061460;28;20300;-17
2022/04/18 11:57:45;;;;;;;5.07;2.95;;;;;;;;;;5064579;28;21035;-17
2022/04/18 12:00:13;;;;;;;6.15;2.90;;;;;;;;;;5066220;28;20229;-19
2022/04/18 12:08:12;;;;;;;5.25;3.28;;;;;;;;;;5063859;28;20225;-19
2022/04/18 12:10:41;;;;;;;3.80;2.65;;;;;;;;;;5066144;28;20222;-18
2022/04/18 12:13:09;;;;;;;6.00;2.80;;;;;;;;;;5063472;28;20742;-18
2022/04/18 12:15:36;;;;;;;5.60;3.00;;;;;;;;;;5068006;28;20233;-18
2022/04/18 12:18:08;;;;;;;3.53;2.67;;;;;;;;;;5062573;28;20241;-19
2022/04/18 12:20:37;;;;;;;5.32;2.80;;;;;;;;;;5063220;28;20217;-19
2022/04/18 12:23:04;;;;;;;5.97;2.70;;;;;;;;;;5063730;28;20842;-19
2022/04/18 12:25:32;;;;;;;4.82;2.85;;;;;;;;;;5059789;28;20230;-18
2022/04/18 12:27:59;;;;;;;6.95;2.88;;;;;;;;;;5063816;28;20235;-19
2022/04/18 12:30:27;;;;;;;5.93;2.78;;;;;;;;;;5065460;28;20232;-19
2022/04/18 12:32:55;;;;;;;4.88;2.72;;;;;;;;;;5069314;28;20242;-18
2022/04/18 12:35:35;;;;;;;5.43;3.08;;;;;;;;;;5066613;28;20232;-19
2022/04/18 12:38:04;;;;;;;4.18;2.70;;;;;;;;;;5062529;28;20230;-19
2022/04/18 12:40:35;;;;;;;3.58;2.63;;;;;;;;;;5063696;28;20747;-18
2022/04/18 12:43:09;;;;;;;4.95;2.20;;;;;;;;;;5064153;28;20222;-19
2022/04/18 12:45:43;;;;;;;3.42;2.60;;;;;;;;;;5060453;28;20237;-18
2022/04/18 12:48:10;;;;;;;4.93;2.92;;;;;;;;;;5068336;28;20346;-18
2022/04/18 12:50:37;;;;;;;3.72;2.70;;;;;;;;;;5065818;28;20222;-18
2022/04/18 12:53:06;;;;;;;4.82;2.35;;;;;;;;;;5063161;28;20806;-18
2022/04/18 12:55:33;;;;;;;5.53;2.30;;;;;;;;;;5064300;28;20234;-18
2022/04/18 12:58:01;;;;;;;5.45;2.25;;;;;;;;;;5067810;28;20233;-18
2022/04/18 13:00:35;;;;;;;2.83;2.30;;;;;;;;;;5062395;28;20244;-18
2022/04/18 13:03:03;;;;;;;4.40;2.50;;;;;;;;;;5060334;28;20252;-19
2022/04/18 13:05:31;;;;;;;3.78;2.25;;;;;;;;;;5061644;28;21066;-18
2022/04/18 13:08:02;;;;;;;5.72;2.95;;;;;;;;;;5062769;28;20221;-18
2022/04/18 13:10:32;;;;;;;4.90;2.97;;;;;;;;;;5065722;28;20221;-19
2022/04/18 13:13:02;;;;;;;5.10;3.13;;;;;;;;;;5059715;28;20701;-18
2022/04/18 13:15:30;;;;;;;4.40;3.00;;;;;;;;;;5062661;28;20237;-18
2022/04/18 13:17:59;;;;;;;8.88;3.20;;;;;;;;;;5065021;28;20232;-18
2022/04/18 13:20:26;;;;;;;5.18;3.22;;;;;;;;;;5069591;28;20234;-19
2022/04/18 13:22:54;;;;;;;6.95;2.83;;;;;;;;;;5062838;28;20241;-19
2022/04/18 13:25:21;;;;;;;6.10;3.08;;;;;;;;;;5060735;28;20229;-18
2022/04/18 13:27:54;;;;;;;5.13;3.03;;;;;;;;;;5061793;28;20284;-18
2022/04/18 13:30:22;;;;;;;5.47;2.80;;;;;;;;;;5062591;28;20225;-19
2022/04/18 13:32:50;;;;;;;5.10;2.50;;;;;;;;;;5059874;28;20245;-18
2022/04/18 13:35:18;;;;;;;5.28;2.33;;;;;;;;;;5060231;28;20229;-18
2022/04/18 13:37:45;;;;;;;7.47;2.28;;;;;;;;;;5062322;28;20229;-18
2022/04/18 13:40:13;;;;;;;4.30;2.40;;;;;;;;;;5060458;28;20260;-18
2022/04/18 13:42:40;;;;;;;4.38;2.10;;;;;;;;;;5063370;28;20234;-18
2022/04/18 13:45:11;;;;;;;9.75;2.67;;;;;;;;;;5063607;28;20214;-18
2022/04/18 13:47:39;;;;;;;2.83;2.22;;;;;;;;;;5062497;28;20320;-18
2022/04/18 13:50:07;;;;;;;3.25;2.25;;;;;;;;;;5060161;28;20230;-18
2022/04/18 13:52:35;;;;;;;5.47;2.15;;;;;;;;;;5063589;28;20240;-18
2022/04/18 13:55:02;;;;;;;5.70;2.20;;;;;;;;;;5060912;28;20222;-18
2022/04/18 13:57:29;;;;;;;3.65;1.90;;;;;;;;;;5059250;28;20234;-18
2022/04/18 13:59:56;;;;;;;3.33;2.47;;;;;;;;;;5061091;28;21086;-18
2022/04/18 14:02:25;;;;;;;2.95;2.10;;;;;;;;;;5063552;28;20233;-18
2022/04/18 14:04:52;;;;;;;4.15;2.40;;;;;;;;;;5059743;28;20226;-18
2022/04/18 14:07:20;;;;;;;2.80;1.77;;;;;;;;;;5060664;28;20791;-18
2022/04/18 14:09:47;;;;;;;3.83;2.03;;;;;;;;;;5061145;28;20256;-18
2022/04/18 14:12:34;;;;;;;3.42;2.03;;;;;;;;;;5062632;28;20230;-18
2022/04/18 14:20:33;;;;;;;2.95;1.98;;;;;;;;;;5058996;28;20241;-18
2022/04/18 14:23:00;;;;;;;5.05;2.40;;;;;;;;;;5061620;28;21025;-18
2022/04/18 14:25:28;;;;;;;2.88;2.00;;;;;;;;;;5061219;28;20231;-18
2022/04/18 14:27:55;;;;;;;3.20;2.00;;;;;;;;;;5062010;28;20615;-18
2022/04/18 14:30:22;;;;;;;4.82;2.20;;;;;;;;;;5062181;28;20639;-18
2022/04/18 14:32:51;;;;;;;2.97;2.10;;;;;;;;;;5060533;28;20234;-18
2022/04/18 14:35:21;;;;;;;2.38;1.80;;;;;;;;;;5060396;28;20222;-18
2022/04/18 14:37:48;;;;;;;4.28;2.35;;;;;;;;;;5064510;28;20230;-18
2022/04/18 14:40:16;;;;;;;5.32;2.10;;;;;;;;;;5061125;28;20261;-18
2022/04/18 14:42:43;;;;;;;3.97;1.70;;;;;;;;;;5066124;28;20233;-18
2022/04/18 14:45:10;;;;;;;4.03;1.70;;;;;;;;;;5059407;28;20704;-18
2022/04/18 14:47:38;;;;;;;4.57;2.10;;;;;;;;;;5061221;28;20244;-18
2022/04/18 14:50:07;;;;;;;3.78;1.88;;;;;;;;;;5061544;28;21012;-18
2022/04/18 14:52:34;;;;;;;4.30;1.95;;;;;;;;;;5061930;28;20221;-18
2022/04/18 14:55:02;;;;;;;6.35;2.30;;;;;;;;;;5063008;28;20233;-18
2022/04/18 14:57:29;;;;;;;4.18;1.60;;;;;;;;;;5069310;28;20222;-18